sensor_id;sensor_type;location;lat;lon;timestamp;pressure;altitude;pressure_sealevel;temperature;humidity
22964;BME280;11648;49.306;6.934;2023-01-28T00:00:52;99148.44;;;7.26;65.39
22964;BME280;11648;49.306;6.934;2023-01-28T00:03:18;99151.91;;;7.22;65.49
22964;BME280;11648;49.306;6.934;2023-01-28T00:05:45;99143.03;;;7.12;65.26
22964;BME280;11648;49.306;6.934;2023-01-28T00:08:12;99146.56;;;7.16;65.40
22964;BME280;11648;49.306;6.934;2023-01-28T00:10:41;99139.59;;;7.15;65.29
22964;BME280;11648;49.306;6.934;2023-01-28T00:13:11;99143.81;;;7.05;65.33
22964;BME280;11648;49.306;6.934;2023-01-28T00:15:40;99133.59;;;7.22;65.20
22964;BME280;11648;49.306;6.934;2023-01-28T00:18:07;99137.06;;;7.21;65.31
22964;BME280;11648;49.306;6.934;2023-01-28T00:20:34;99139.63;;;7.19;65.17
22964;BME280;11648;49.306;6.934;2023-01-28T00:23:01;99132.69;;;7.21;65.19
22964;BME280;11648;49.306;6.934;2023-01-28T00:25:28;99137.16;;;7.30;65.09
22964;BME280;11648;49.306;6.934;2023-01-28T00:27:54;99138.06;;;7.32;65.05
22964;BME280;11648;49.306;6.934;2023-01-28T00:30:21;99136.31;;;7.31;65.08
22964;BME280;11648;49.306;6.934;2023-01-28T00:32:48;99138.03;;;7.29;64.79
22964;BME280;11648;49.306;6.934;2023-01-28T00:35:17;99135.34;;;7.24;64.94
22964;BME280;11648;49.306;6.934;2023-01-28T00:37:45;99134.53;;;7.28;64.51
22964;BME280;11648;49.306;6.934;2023-01-28T00:40:12;99138.03;;;7.29;64.72
22964;BME280;11648;49.306;6.934;2023-01-28T00:42:39;99131.09;;;7.32;64.93
22964;BME280;11648;49.306;6.934;2023-01-28T00:45:06;99133.78;;;7.38;65.05
22964;BME280;11648;49.306;6.934;2023-01-28T00:47:33;99139.03;;;7.38;64.67
22964;BME280;11648;49.306;6.934;2023-01-28T00:49:59;99137.34;;;7.43;64.55
22964;BME280;11648;49.306;6.934;2023-01-28T00:52:26;99132.97;;;7.42;64.99
22964;BME280;11648;49.306;6.934;2023-01-28T00:54:53;99129.41;;;7.36;64.21
22964;BME280;11648;49.306;6.934;2023-01-28T00:57:20;99132.94;;;7.41;64.67
22964;BME280;11648;49.306;6.934;2023-01-28T00:59:47;99126.75;;;7.34;64.42
22964;BME280;11648;49.306;6.934;2023-01-28T01:02:14;99132.88;;;7.35;64.47
22964;BME280;11648;49.306;6.934;2023-01-28T01:04:43;99137.13;;;7.27;64.07
22964;BME280;11648;49.306;6.934;2023-01-28T01:07:22;99131.81;;;7.21;64.26
22964;BME280;11648;49.306;6.934;2023-01-28T01:09:58;99132.78;;;7.27;63.93
22964;BME280;11648;49.306;6.934;2023-01-28T01:12:27;99137.97;;;7.26;64.19
22964;BME280;11648;49.306;6.934;2023-01-28T01:14:53;99138.75;;;7.17;63.95
22964;BME280;11648;49.306;6.934;2023-01-28T01:17:20;99139.75;;;7.25;64.22
22964;BME280;11648;49.306;6.934;2023-01-28T01:19:47;99137.91;;;7.18;64.17
22964;BME280;11648;49.306;6.934;2023-01-28T01:22:14;99147.31;;;7.06;64.67
22964;BME280;11648;49.306;6.934;2023-01-28T01:24:41;99150.00;;;7.10;64.46
22964;BME280;11648;49.306;6.934;2023-01-28T01:27:07;99155.19;;;7.07;64.42
22964;BME280;11648;49.306;6.934;2023-01-28T01:29:35;99152.53;;;7.06;64.26
22964;BME280;11648;49.306;6.934;2023-01-28T01:32:02;99148.16;;;7.03;64.46
22964;BME280;11648;49.306;6.934;2023-01-28T01:34:29;99147.28;;;7.03;64.55
22964;BME280;11648;49.306;6.934;2023-01-28T01:36:56;99154.31;;;7.08;64.29
22964;BME280;11648;49.306;6.934;2023-01-28T01:39:24;99147.38;;;7.12;64.50
22964;BME280;11648;49.306;6.934;2023-01-28T01:41:51;99150.81;;;7.08;64.43
22964;BME280;11648;49.306;6.934;2023-01-28T01:47:43;99158.66;;;7.08;64.56
22964;BME280;11648;49.306;6.934;2023-01-28T01:52:41;99159.59;;;7.10;64.26
22964;BME280;11648;49.306;6.934;2023-01-28T01:55:13;99151.66;;;7.05;64.15
22964;BME280;11648;49.306;6.934;2023-01-28T01:57:43;99156.13;;;7.12;64.32
22964;BME280;11648;49.306;6.934;2023-01-28T02:00:13;99151.66;;;7.05;64.30
22964;BME280;11648;49.306;6.934;2023-01-28T02:02:47;99159.56;;;7.07;64.52
22964;BME280;11648;49.306;6.934;2023-01-28T02:05:18;99160.44;;;7.09;64.08
22964;BME280;11648;49.306;6.934;2023-01-28T02:07:46;99163.09;;;7.12;64.05
22964;BME280;11648;49.306;6.934;2023-01-28T02:10:13;99161.34;;;7.11;64.09
22964;BME280;11648;49.306;6.934;2023-01-28T02:12:48;99174.47;;;7.14;64.05
22964;BME280;11648;49.306;6.934;2023-01-28T02:15:20;99169.34;;;7.21;64.18
22964;BME280;11648;49.306;6.934;2023-01-28T02:17:48;99165.81;;;7.19;64.25
22964;BME280;11648;49.306;6.934;2023-01-28T02:20:23;99168.53;;;7.25;64.43
22964;BME280;11648;49.306;6.934;2023-01-28T02:28:22;99170.53;;;7.43;64.29
22964;BME280;11648;49.306;6.934;2023-01-28T02:31:00;99170.56;;;7.46;64.08
22964;BME280;11648;49.306;6.934;2023-01-28T02:34:28;99170.66;;;7.54;63.75
22964;BME280;11648;49.306;6.934;2023-01-28T02:40:11;99159.34;;;7.58;63.76
22964;BME280;11648;49.306;6.934;2023-01-28T02:42:40;99165.50;;;7.61;63.91
22964;BME280;11648;49.306;6.934;2023-01-28T02:45:29;99163.75;;;7.60;63.37
22964;BME280;11648;49.306;6.934;2023-01-28T02:48:17;99155.81;;;7.56;63.72
22964;BME280;11648;49.306;6.934;2023-01-28T02:51:00;99161.03;;;7.53;63.43
22964;BME280;11648;49.306;6.934;2023-01-28T02:53:40;99161.78;;;7.42;63.73
22964;BME280;11648;49.306;6.934;2023-01-28T03:04:24;99165.22;;;7.40;63.82
22964;BME280;11648;49.306;6.934;2023-01-28T03:06:55;99163.47;;;7.39;63.62
22964;BME280;11648;49.306;6.934;2023-01-28T03:09:24;99154.75;;;7.40;63.91
22964;BME280;11648;49.306;6.934;2023-01-28T03:15:28;99163.44;;;7.37;63.83
22964;BME280;11648;49.306;6.934;2023-01-28T03:18:09;99163.50;;;7.42;63.98
22964;BME280;11648;49.306;6.934;2023-01-28T03:26:53;99169.53;;;7.36;63.57
22964;BME280;11648;49.306;6.934;2023-01-28T03:29:43;99178.25;;;7.32;64.25
22964;BME280;11648;49.306;6.934;2023-01-28T03:32:31;99182.50;;;7.26;63.93
22964;BME280;11648;49.306;6.934;2023-01-28T03:35:20;99183.31;;;7.20;64.14
22964;BME280;11648;49.306;6.934;2023-01-28T03:38:08;99189.22;;;7.09;64.14
22964;BME280;11648;49.306;6.934;2023-01-28T03:40:55;99193.59;;;7.07;64.51
22964;BME280;11648;49.306;6.934;2023-01-28T03:43:23;99190.03;;;7.03;64.44
22964;BME280;11648;49.306;6.934;2023-01-28T03:45:50;99189.88;;;6.94;64.40
22964;BME280;11648;49.306;6.934;2023-01-28T03:48:18;99190.03;;;7.03;64.45
22964;BME280;11648;49.306;6.934;2023-01-28T03:50:46;99187.41;;;7.03;64.36
22964;BME280;11648;49.306;6.934;2023-01-28T03:53:14;99186.63;;;7.07;64.60
22964;BME280;11648;49.306;6.934;2023-01-28T03:55:48;99187.53;;;7.11;64.50
22964;BME280;11648;49.306;6.934;2023-01-28T03:58:17;99194.53;;;7.13;64.38
22964;BME280;11648;49.306;6.934;2023-01-28T04:00:44;99200.75;;;7.18;64.41
22964;BME280;11648;49.306;6.934;2023-01-28T04:03:16;99202.31;;;7.07;64.36
22964;BME280;11648;49.306;6.934;2023-01-28T04:06:04;99205.78;;;7.06;64.38
22964;BME280;11648;49.306;6.934;2023-01-28T04:08:50;99208.56;;;7.17;64.55
22964;BME280;11648;49.306;6.934;2023-01-28T04:11:46;99205.13;;;7.22;64.45
22964;BME280;11648;49.306;6.934;2023-01-28T04:14:18;99212.19;;;7.25;64.21
22964;BME280;11648;49.306;6.934;2023-01-28T04:16:54;99208.72;;;7.27;64.15
22964;BME280;11648;49.306;6.934;2023-01-28T04:19:23;99205.16;;;7.24;63.96
22964;BME280;11648;49.306;6.934;2023-01-28T04:21:52;99214.75;;;7.23;64.26
22964;BME280;11648;49.306;6.934;2023-01-28T04:24:23;99211.25;;;7.21;64.43
22964;BME280;11648;49.306;6.934;2023-01-28T04:26:50;99219.84;;;7.11;64.89
22964;BME280;11648;49.306;6.934;2023-01-28T04:29:17;99225.94;;;7.12;64.66
22964;BME280;11648;49.306;6.934;2023-01-28T04:31:44;99224.06;;;7.05;65.00
22964;BME280;11648;49.306;6.934;2023-01-28T04:34:16;99229.31;;;7.03;65.52
22964;BME280;11648;49.306;6.934;2023-01-28T04:37:03;99227.50;;;7.01;65.95
22964;BME280;11648;49.306;6.934;2023-01-28T04:39:59;99230.88;;;6.93;65.96
22964;BME280;11648;49.306;6.934;2023-01-28T04:42:53;99237.84;;;6.91;66.36
22964;BME280;11648;49.306;6.934;2023-01-28T04:45:30;99231.88;;;7.02;66.45
22964;BME280;11648;49.306;6.934;2023-01-28T04:48:11;99234.38;;;6.92;65.88
22964;BME280;11648;49.306;6.934;2023-01-28T04:51:03;99237.00;;;6.94;66.26
22964;BME280;11648;49.306;6.934;2023-01-28T04:53:53;99237.75;;;6.85;65.97
22964;BME280;11648;49.306;6.934;2023-01-28T04:56:29;99241.13;;;6.78;65.47
22964;BME280;11648;49.306;6.934;2023-01-28T04:58:55;99244.69;;;6.83;65.86
22964;BME280;11648;49.306;6.934;2023-01-28T05:01:22;99237.59;;;6.76;65.38
22964;BME280;11648;49.306;6.934;2023-01-28T05:03:51;99248.13;;;6.81;64.97
22964;BME280;11648;49.306;6.934;2023-01-28T05:06:22;99239.44;;;6.82;65.00
22964;BME280;11648;49.306;6.934;2023-01-28T05:08:52;99243.69;;;6.77;64.31
22964;BME280;11648;49.306;6.934;2023-01-28T05:11:19;99236.78;;;6.80;64.50
22964;BME280;11648;49.306;6.934;2023-01-28T05:13:50;99238.56;;;6.81;64.32
22964;BME280;11648;49.306;6.934;2023-01-28T05:16:18;99237.75;;;6.85;64.11
22964;BME280;11648;49.306;6.934;2023-01-28T05:18:45;99249.03;;;6.83;63.90
22964;BME280;11648;49.306;6.934;2023-01-28T05:21:16;99249.19;;;6.92;63.57
22964;BME280;11648;49.306;6.934;2023-01-28T05:23:46;99244.84;;;6.92;63.59
22964;BME280;11648;49.306;6.934;2023-01-28T05:26:13;99246.53;;;6.90;63.46
22964;BME280;11648;49.306;6.934;2023-01-28T05:28:39;99239.44;;;6.83;63.63
22964;BME280;11648;49.306;6.934;2023-01-28T05:31:07;99236.81;;;6.83;63.48
22964;BME280;11648;49.306;6.934;2023-01-28T05:33:35;99242.09;;;6.85;63.43
22964;BME280;11648;49.306;6.934;2023-01-28T05:36:04;99252.31;;;6.70;63.49
22964;BME280;11648;49.306;6.934;2023-01-28T05:38:31;99258.38;;;6.69;63.84
22964;BME280;11648;49.306;6.934;2023-01-28T05:40:58;99258.44;;;6.70;63.65
22964;BME280;11648;49.306;6.934;2023-01-28T05:43:24;99259.34;;;6.74;63.50
22964;BME280;11648;49.306;6.934;2023-01-28T05:46:09;99261.03;;;6.70;63.42
22964;BME280;11648;49.306;6.934;2023-01-28T05:49:05;99260.06;;;6.64;63.08
22964;BME280;11648;49.306;6.934;2023-01-28T05:51:49;99262.53;;;6.58;63.22
22964;BME280;11648;49.306;6.934;2023-01-28T05:54:18;99265.44;;;6.71;63.41
22964;BME280;11648;49.306;6.934;2023-01-28T05:56:46;99266.22;;;6.67;63.32
22964;BME280;11648;49.306;6.934;2023-01-28T05:59:13;99268.09;;;6.76;62.99
22964;BME280;11648;49.306;6.934;2023-01-28T06:01:42;99272.63;;;6.84;62.78
22964;BME280;11648;49.306;6.934;2023-01-28T06:04:08;99271.81;;;6.88;62.77
22964;BME280;11648;49.306;6.934;2023-01-28T06:06:35;99264.81;;;6.86;63.09
22964;BME280;11648;49.306;6.934;2023-01-28T06:09:04;99264.72;;;6.83;62.68
22964;BME280;11648;49.306;6.934;2023-01-28T06:11:31;99264.72;;;6.81;62.27
22964;BME280;11648;49.306;6.934;2023-01-28T06:14:01;99276.06;;;6.82;62.84
22964;BME280;11648;49.306;6.934;2023-01-28T06:17:00;99274.88;;;6.65;62.85
22964;BME280;11648;49.306;6.934;2023-01-28T06:19:53;99273.16;;;6.65;62.90
22964;BME280;11648;49.306;6.934;2023-01-28T06:22:20;99279.13;;;6.57;62.62
22964;BME280;11648;49.306;6.934;2023-01-28T06:24:47;99277.44;;;6.60;62.80
22964;BME280;11648;49.306;6.934;2023-01-28T06:27:13;99280.09;;;6.65;62.84
22964;BME280;11648;49.306;6.934;2023-01-28T06:29:41;99282.72;;;6.63;63.08
22964;BME280;11648;49.306;6.934;2023-01-28T06:32:08;99288.91;;;6.68;62.87
22964;BME280;11648;49.306;6.934;2023-01-28T06:34:34;99290.66;;;6.68;62.64
22964;BME280;11648;49.306;6.934;2023-01-28T06:37:01;99296.75;;;6.68;62.62
22964;BME280;11648;49.306;6.934;2023-01-28T06:39:30;99298.41;;;6.63;62.96
22964;BME280;11648;49.306;6.934;2023-01-28T06:41:59;99305.66;;;6.79;62.74
22964;BME280;11648;49.306;6.934;2023-01-28T06:44:25;99298.69;;;6.80;62.62
22964;BME280;11648;49.306;6.934;2023-01-28T06:46:52;99313.66;;;6.87;62.52
22964;BME280;11648;49.306;6.934;2023-01-28T06:49:19;99308.22;;;6.76;62.34
22964;BME280;11648;49.306;6.934;2023-01-28T06:51:47;99309.81;;;6.68;62.83
22964;BME280;11648;49.306;6.934;2023-01-28T06:54:14;99317.63;;;6.65;62.77
22964;BME280;11648;49.306;6.934;2023-01-28T06:56:41;99315.19;;;6.74;62.90
22964;BME280;11648;49.306;6.934;2023-01-28T06:59:08;99311.00;;;6.84;62.91
22964;BME280;11648;49.306;6.934;2023-01-28T07:01:35;99316.22;;;6.82;62.97
22964;BME280;11648;49.306;6.934;2023-01-28T07:04:01;99314.53;;;6.86;62.76
22964;BME280;11648;49.306;6.934;2023-01-28T07:06:28;99313.66;;;6.87;62.75
22964;BME280;11648;49.306;6.934;2023-01-28T07:08:55;99326.34;;;6.66;61.98
22964;BME280;11648;49.306;6.934;2023-01-28T07:11:21;99320.50;;;6.79;62.21
22964;BME280;11648;49.306;6.934;2023-01-28T07:13:48;99317.81;;;6.74;62.37
22964;BME280;11648;49.306;6.934;2023-01-28T07:16:16;99317.75;;;6.71;62.26
22964;BME280;11648;49.306;6.934;2023-01-28T07:18:42;99327.06;;;6.56;61.81
22964;BME280;11648;49.306;6.934;2023-01-28T07:21:09;99328.78;;;6.55;62.73
22964;BME280;11648;49.306;6.934;2023-01-28T07:23:36;99324.69;;;6.69;62.44
22964;BME280;11648;49.306;6.934;2023-01-28T07:26:04;99325.50;;;6.67;62.54
22964;BME280;11648;49.306;6.934;2023-01-28T07:28:31;99333.38;;;6.67;62.15
22964;BME280;11648;49.306;6.934;2023-01-28T07:30:57;99330.75;;;6.67;62.35
22964;BME280;11648;49.306;6.934;2023-01-28T07:33:24;99329.16;;;6.75;62.34
22964;BME280;11648;49.306;6.934;2023-01-28T07:35:51;99336.03;;;6.70;62.37
22964;BME280;11648;49.306;6.934;2023-01-28T07:38:17;99341.22;;;6.68;62.28
22964;BME280;11648;49.306;6.934;2023-01-28T07:40:45;99346.19;;;6.55;62.54
22964;BME280;11648;49.306;6.934;2023-01-28T07:43:12;99338.41;;;6.58;62.58
22964;BME280;11648;49.306;6.934;2023-01-28T07:45:39;99341.97;;;6.61;62.58
22964;BME280;11648;49.306;6.934;2023-01-28T07:48:07;99342.94;;;6.66;62.63
22964;BME280;11648;49.306;6.934;2023-01-28T07:50:36;99351.88;;;6.77;62.83
22964;BME280;11648;49.306;6.934;2023-01-28T07:53:05;99345.59;;;6.69;62.32
22964;BME280;11648;49.306;6.934;2023-01-28T07:55:32;99351.69;;;6.68;61.67
22964;BME280;11648;49.306;6.934;2023-01-28T07:58:03;99351.56;;;6.61;62.27
22964;BME280;11648;49.306;6.934;2023-01-28T08:00:32;99355.25;;;6.72;62.03
22964;BME280;11648;49.306;6.934;2023-01-28T08:03:21;99359.53;;;6.68;62.10
22964;BME280;11648;49.306;6.934;2023-01-28T08:05:49;99365.09;;;6.85;62.04
22964;BME280;11648;49.306;6.934;2023-01-28T08:08:17;99352.97;;;6.88;61.49
22964;BME280;11648;49.306;6.934;2023-01-28T08:10:44;99359.16;;;6.95;61.42
22964;BME280;11648;49.306;6.934;2023-01-28T08:13:12;99359.25;;;7.00;61.33
22964;BME280;11648;49.306;6.934;2023-01-28T08:15:39;99365.44;;;7.05;61.26
22964;BME280;11648;49.306;6.934;2023-01-28T08:18:08;99369.91;;;7.10;60.86
22964;BME280;11648;49.306;6.934;2023-01-28T08:20:35;99364.50;;;7.01;61.15
22964;BME280;11648;49.306;6.934;2023-01-28T08:23:11;99373.16;;;6.95;60.93
22964;BME280;11648;49.306;6.934;2023-01-28T08:25:38;99366.78;;;6.83;60.99
22964;BME280;11648;49.306;6.934;2023-01-28T08:28:06;99368.41;;;6.76;61.25
22964;BME280;11648;49.306;6.934;2023-01-28T08:30:34;99364.44;;;6.97;61.12
22964;BME280;11648;49.306;6.934;2023-01-28T08:33:04;99364.31;;;6.90;60.46
22964;BME280;11648;49.306;6.934;2023-01-28T08:35:32;99367.13;;;7.00;60.98
22964;BME280;11648;49.306;6.934;2023-01-28T08:38:00;99361.09;;;7.04;60.26
22964;BME280;11648;49.306;6.934;2023-01-28T08:40:29;99366.84;;;7.35;59.89
22964;BME280;11648;49.306;6.934;2023-01-28T08:42:56;99369.72;;;7.51;59.61
22964;BME280;11648;49.306;6.934;2023-01-28T08:45:24;99369.94;;;7.64;59.00
22964;BME280;11648;49.306;6.934;2023-01-28T08:47:59;99366.19;;;7.47;58.72
22964;BME280;11648;49.306;6.934;2023-01-28T08:50:29;99368.19;;;7.65;58.41
22964;BME280;11648;49.306;6.934;2023-01-28T08:53:03;99366.09;;;7.42;58.63
22964;BME280;11648;49.306;6.934;2023-01-28T08:55:32;99364.19;;;7.34;58.75
22964;BME280;11648;49.306;6.934;2023-01-28T08:58:07;99364.03;;;7.23;59.10
22964;BME280;11648;49.306;6.934;2023-01-28T09:00:35;99368.09;;;7.08;59.28
22964;BME280;11648;49.306;6.934;2023-01-28T09:03:03;99379.47;;;7.07;59.31
22964;BME280;11648;49.306;6.934;2023-01-28T09:05:33;99371.78;;;7.17;59.65
22964;BME280;11648;49.306;6.934;2023-01-28T09:08:01;99369.91;;;7.10;59.63
22964;BME280;11648;49.306;6.934;2023-01-28T09:10:28;99376.94;;;7.13;59.92
22964;BME280;11648;49.306;6.934;2023-01-28T09:12:55;99385.50;;;7.04;59.47
22964;BME280;11648;49.306;6.934;2023-01-28T09:15:22;99384.78;;;7.11;59.73
22964;BME280;11648;49.306;6.934;2023-01-28T09:17:49;99378.53;;;7.05;59.47
22964;BME280;11648;49.306;6.934;2023-01-28T09:20:16;99384.78;;;7.11;59.75
22964;BME280;11648;49.306;6.934;2023-01-28T09:22:43;99386.66;;;7.20;59.43
22964;BME280;11648;49.306;6.934;2023-01-28T09:25:10;99399.19;;;7.37;59.49
22964;BME280;11648;49.306;6.934;2023-01-28T09:27:36;99400.91;;;7.37;58.96
22964;BME280;11648;49.306;6.934;2023-01-28T09:30:03;99394.06;;;7.45;59.82
22964;BME280;11648;49.306;6.934;2023-01-28T09:32:30;99393.00;;;7.34;59.05
22964;BME280;11648;49.306;6.934;2023-01-28T09:34:57;99389.28;;;7.20;58.71
22964;BME280;11648;49.306;6.934;2023-01-28T09:37:24;99393.66;;;7.21;59.21
22964;BME280;11648;49.306;6.934;2023-01-28T09:39:51;99402.28;;;7.14;59.20
22964;BME280;11648;49.306;6.934;2023-01-28T09:45:19;99402.00;;;6.99;59.30
22964;BME280;11648;49.306;6.934;2023-01-28T09:47:51;99398.72;;;7.10;59.74
22964;BME280;11648;49.306;6.934;2023-01-28T09:50:38;99404.16;;;7.22;59.57
22964;BME280;11648;49.306;6.934;2023-01-28T09:53:32;99405.91;;;7.22;58.81
22964;BME280;11648;49.306;6.934;2023-01-28T09:56:05;99400.03;;;7.36;59.01
22964;BME280;11648;49.306;6.934;2023-01-28T09:58:33;99409.84;;;7.48;58.75
22964;BME280;11648;49.306;6.934;2023-01-28T10:06:34;99419.56;;;7.54;58.03
22964;BME280;11648;49.306;6.934;2023-01-28T10:17:43;99429.06;;;7.47;57.65
22964;BME280;11648;49.306;6.934;2023-01-28T10:22:44;99430.22;;;7.64;57.90
22964;BME280;11648;49.306;6.934;2023-01-28T10:25:18;99426.78;;;7.70;58.29
22964;BME280;11648;49.306;6.934;2023-01-28T10:27:47;99431.19;;;7.72;58.44
22964;BME280;11648;49.306;6.934;2023-01-28T10:30:20;99423.44;;;7.80;57.64
22964;BME280;11648;49.306;6.934;2023-01-28T10:35:23;99415.56;;;7.78;57.88
22964;BME280;11648;49.306;6.934;2023-01-28T10:38:00;99424.38;;;7.83;57.65
22964;BME280;11648;49.306;6.934;2023-01-28T10:40:28;99425.31;;;7.87;57.25
22964;BME280;11648;49.306;6.934;2023-01-28T10:42:55;99413.88;;;7.82;56.61
22964;BME280;11648;49.306;6.934;2023-01-28T10:45:31;99424.47;;;7.89;56.83
22964;BME280;11648;49.306;6.934;2023-01-28T10:48:13;99421.88;;;7.91;57.21
22964;BME280;11648;49.306;6.934;2023-01-28T10:50:55;99430.69;;;7.96;56.94
22964;BME280;11648;49.306;6.934;2023-01-28T10:53:43;99422.38;;;7.67;56.32
22964;BME280;11648;49.306;6.934;2023-01-28T10:56:14;99428.41;;;7.62;56.88
22964;BME280;11648;49.306;6.934;2023-01-28T11:01:37;99440.72;;;7.67;56.52
22964;BME280;11648;49.306;6.934;2023-01-28T11:04:05;99437.19;;;7.65;56.99
22964;BME280;11648;49.306;6.934;2023-01-28T11:06:32;99434.94;;;7.86;57.02
22964;BME280;11648;49.306;6.934;2023-01-28T11:08:58;99435.22;;;8.06;56.61
22964;BME280;11648;49.306;6.934;2023-01-28T11:11:27;99425.56;;;8.05;56.09
22964;BME280;11648;49.306;6.934;2023-01-28T11:13:55;99428.81;;;7.87;55.62
22964;BME280;11648;49.306;6.934;2023-01-28T11:16:24;99426.31;;;7.93;55.71
22964;BME280;11648;49.306;6.934;2023-01-28T11:19:03;99433.03;;;7.78;55.61
22964;BME280;11648;49.306;6.934;2023-01-28T11:21:34;99428.94;;;7.95;56.72
22964;BME280;11648;49.306;6.934;2023-01-28T11:24:03;99429.88;;;8.00;56.17
22964;BME280;11648;49.306;6.934;2023-01-28T11:26:37;99424.03;;;8.18;56.31
22964;BME280;11648;49.306;6.934;2023-01-28T11:29:04;99418.19;;;8.37;55.84
22964;BME280;11648;49.306;6.934;2023-01-28T11:31:42;99417.44;;;8.46;55.58
22964;BME280;11648;49.306;6.934;2023-01-28T11:34:16;99411.19;;;8.37;54.63
22964;BME280;11648;49.306;6.934;2023-01-28T11:37:00;99416.53;;;8.43;54.79
22964;BME280;11648;49.306;6.934;2023-01-28T11:39:28;99414.69;;;8.38;54.80
22964;BME280;11648;49.306;6.934;2023-01-28T11:42:15;99421.88;;;8.51;54.85
22964;BME280;11648;49.306;6.934;2023-01-28T11:44:43;99414.69;;;8.36;55.27
22964;BME280;11648;49.306;6.934;2023-01-28T11:50:32;99411.50;;;8.60;54.81
22964;BME280;11648;49.306;6.934;2023-01-28T11:53:45;99408.69;;;8.48;55.20
22964;BME280;11648;49.306;6.934;2023-01-28T11:59:23;99402.44;;;8.37;55.16
22964;BME280;11648;49.306;6.934;2023-01-28T12:02:19;99400.91;;;8.51;54.68
22964;BME280;11648;49.306;6.934;2023-01-28T12:04:54;99399.16;;;8.53;55.48
22964;BME280;11648;49.306;6.934;2023-01-28T12:10:25;99400.00;;;8.52;54.78
22964;BME280;11648;49.306;6.934;2023-01-28T12:18:26;99388.59;;;8.47;54.62
22964;BME280;11648;49.306;6.934;2023-01-28T12:21:06;99380.84;;;8.58;54.90
22964;BME280;11648;49.306;6.934;2023-01-28T12:29:47;99373.78;;;8.54;54.23
22964;BME280;11648;49.306;6.934;2023-01-28T12:42:51;99380.25;;;8.14;54.21
22964;BME280;11648;49.306;6.934;2023-01-28T12:45:28;99382.84;;;8.12;54.42
22964;BME280;11648;49.306;6.934;2023-01-28T12:48:06;99381.00;;;8.05;54.28
22964;BME280;11648;49.306;6.934;2023-01-28T12:50:38;99371.56;;;8.19;54.46
22964;BME280;11648;49.306;6.934;2023-01-28T12:55:43;99366.50;;;8.28;54.41
22964;BME280;11648;49.306;6.934;2023-01-28T12:58:20;99369.94;;;8.27;54.28
22964;BME280;11648;49.306;6.934;2023-01-28T13:00:50;99371.81;;;8.34;54.48
22964;BME280;11648;49.306;6.934;2023-01-28T13:03:25;99376.75;;;8.13;53.70
22964;BME280;11648;49.306;6.934;2023-01-28T13:06:00;99380.28;;;8.17;54.22
22964;BME280;11648;49.306;6.934;2023-01-28T13:08:28;99374.28;;;8.25;53.71
22964;BME280;11648;49.306;6.934;2023-01-28T13:11:00;99381.31;;;8.28;54.07
22964;BME280;11648;49.306;6.934;2023-01-28T13:13:31;99392.63;;;8.24;54.12
22964;BME280;11648;49.306;6.934;2023-01-28T13:15:59;99385.53;;;8.17;53.61
22964;BME280;11648;49.306;6.934;2023-01-28T13:18:36;99387.38;;;8.22;54.82
22964;BME280;11648;49.306;6.934;2023-01-28T13:21:35;99387.28;;;8.15;54.37
22964;BME280;11648;49.306;6.934;2023-01-28T13:29:28;99394.72;;;7.86;53.60
22964;BME280;11648;49.306;6.934;2023-01-28T13:31:58;99392.72;;;7.68;54.79
22964;BME280;11648;49.306;6.934;2023-01-28T13:34:34;99398.88;;;7.73;54.95
22964;BME280;11648;49.306;6.934;2023-01-28T13:39:51;99399.88;;;7.81;55.01
22964;BME280;11648;49.306;6.934;2023-01-28T13:42:26;99406.91;;;7.82;55.66
22964;BME280;11648;49.306;6.934;2023-01-28T13:44:54;99407.03;;;7.91;55.28
22964;BME280;11648;49.306;6.934;2023-01-28T13:50:23;99423.00;;;8.07;54.26
22964;BME280;11648;49.306;6.934;2023-01-28T13:55:23;99423.09;;;8.14;54.77
22964;BME280;11648;49.306;6.934;2023-01-28T13:58:26;99431.94;;;8.21;54.48
22964;BME280;11648;49.306;6.934;2023-01-28T14:01:47;99431.03;;;8.20;54.12
22964;BME280;11648;49.306;6.934;2023-01-28T14:07:13;99438.94;;;8.22;54.67
22964;BME280;11648;49.306;6.934;2023-01-28T14:12:41;99444.53;;;7.86;54.39
22964;BME280;11648;49.306;6.934;2023-01-28T14:15:31;99448.09;;;7.89;54.90
22964;BME280;11648;49.306;6.934;2023-01-28T14:18:12;99447.97;;;7.82;54.88
22964;BME280;11648;49.306;6.934;2023-01-28T14:20:43;99447.91;;;7.80;54.60
22964;BME280;11648;49.306;6.934;2023-01-28T14:23:17;99453.19;;;7.82;55.11
22964;BME280;11648;49.306;6.934;2023-01-28T14:26:00;99456.75;;;7.87;54.89
22964;BME280;11648;49.306;6.934;2023-01-28T14:31:35;99454.19;;;7.88;54.83
22964;BME280;11648;49.306;6.934;2023-01-28T14:36:53;99461.06;;;7.83;54.67
22964;BME280;11648;49.306;6.934;2023-01-28T14:39:27;99454.75;;;7.71;54.53
22964;BME280;11648;49.306;6.934;2023-01-28T14:41:56;99456.66;;;7.79;54.75
22964;BME280;11648;49.306;6.934;2023-01-28T14:44:39;99455.81;;;7.83;54.79
22964;BME280;11648;49.306;6.934;2023-01-28T14:52:35;99466.63;;;7.49;54.79
22964;BME280;11648;49.306;6.934;2023-01-28T14:55:32;99466.53;;;7.44;55.30
22964;BME280;11648;49.306;6.934;2023-01-28T14:58:05;99462.00;;;7.34;55.34
22964;BME280;11648;49.306;6.934;2023-01-28T15:00:34;99472.03;;;7.12;55.14
22964;BME280;11648;49.306;6.934;2023-01-28T15:03:15;99474.97;;;6.82;55.47
22964;BME280;11648;49.306;6.934;2023-01-28T15:06:13;99474.97;;;6.83;56.49
22964;BME280;11648;49.306;6.934;2023-01-28T15:08:40;99470.53;;;6.78;56.46
22964;BME280;11648;49.306;6.934;2023-01-28T15:11:10;99465.41;;;6.84;56.30
22964;BME280;11648;49.306;6.934;2023-01-28T15:13:42;99471.50;;;6.84;56.57
22964;BME280;11648;49.306;6.934;2023-01-28T15:16:22;99473.41;;;6.91;56.97
22964;BME280;11648;49.306;6.934;2023-01-28T15:18:49;99466.75;;;7.09;56.72
22964;BME280;11648;49.306;6.934;2023-01-28T15:21:23;99463.44;;;7.17;56.15
22964;BME280;11648;49.306;6.934;2023-01-28T15:23:54;99460.03;;;7.23;55.59
22964;BME280;11648;49.306;6.934;2023-01-28T15:26:31;99457.47;;;7.26;55.78
22964;BME280;11648;49.306;6.934;2023-01-28T15:28:58;99453.84;;;7.18;55.80
22964;BME280;11648;49.306;6.934;2023-01-28T15:34:13;99456.63;;;7.27;55.78
22964;BME280;11648;49.306;6.934;2023-01-28T15:36:41;99463.41;;;7.16;55.87
22964;BME280;11648;49.306;6.934;2023-01-28T15:39:14;99469.50;;;7.15;55.75
22964;BME280;11648;49.306;6.934;2023-01-28T15:41:44;99462.59;;;7.20;55.88